Time;durP1;ratioP1;P1;durP2;ratioP2;P2;SDS_P1;SDS_P2;PMS_P1;PMS_P2;Temp;Humidity;BMP_temperature;BMP_pressure;BME280_temperature;BME280_humidity;BME280_pressure;Samples;Min_cycle;Max_cycle;Signal;HPM_P1;HPM_P2
2022/11/08 00:18:23;;;;;;;52.25;27.88;;;10.80;99.90;;;;;;605800;22;20441;-81
2022/11/08 00:20:49;;;;;;;6.97;3.78;;;10.80;99.90;;;;;;5064309;28;20037;-89
2022/11/08 00:23:15;;;;;;;11.15;4.50;;;;;;;;;;5043062;28;20479;-86
2022/11/08 00:25:41;;;;;;;9.57;3.90;;;;;;;;;;5038130;28;20037;-92
2022/11/08 00:28:07;;;;;;;9.18;3.97;;;;;;;;;;5027210;28;20042;-89
2022/11/08 00:30:33;;;;;;;8.52;3.75;;;;;;;;;;5043876;28;20072;-88
2022/11/08 00:32:59;;;;;;;9.98;4.40;;;;;;;;;;5033577;28;20119;-90
2022/11/08 00:35:25;;;;;;;9.57;4.20;;;;;;;;;;5033586;28;20116;-86
2022/11/08 00:37:51;;;;;;;13.90;4.97;;;;;;;;;;5060061;28;20029;-90
2022/11/08 00:40:17;;;;;;;10.52;4.60;;;;;;;;;;5050475;28;20140;-87
2022/11/08 00:42:43;;;;;;;8.52;4.00;;;;;;;;;;5029950;28;20038;-90
2022/11/08 00:45:09;;;;;;;12.57;4.25;;;;;;;;;;5033631;28;20048;-89
2022/11/08 00:47:35;;;;;;;6.65;3.92;;;;;;;;;;5047633;28;20089;-88
2022/11/08 00:50:01;;;;;;;11.25;3.90;;;;;;;;;;5040580;28;20040;-88
2022/11/08 00:52:27;;;;;;;9.07;3.92;;;;;;;;;;5039779;28;20029;-89
2022/11/08 00:54:52;;;;;;;6.57;3.30;;;;;;;;;;5056221;28;20029;-87
2022/11/08 00:57:18;;;;;;;9.25;3.88;;;;;;;;;;5030047;28;20021;-88
2022/11/08 00:59:44;;;;;;;8.30;3.55;;;;;;;;;;5040435;28;20033;-88
2022/11/08 01:02:10;;;;;;;12.68;4.47;;;;;;;;;;5036194;28;20033;-87
2022/11/08 01:04:36;;;;;;;10.30;4.00;;;;;;;;;;5058583;28;20038;-87
2022/11/08 01:07:02;;;;;;;9.93;3.80;;;;;;;;;;5039018;28;20028;-87
2022/11/08 01:09:28;;;;;;;7.05;3.35;;;9.90;99.90;;;;;;5034217;28;20018;-86
2022/11/08 01:11:54;;;;;;;11.23;3.38;;;;;;;;;;5048997;28;20036;-86
2022/11/08 01:14:20;;;;;;;8.93;3.10;;;;;;;;;;5040474;28;20025;-86
2022/11/08 01:16:46;;;;;;;5.93;3.10;;;;;;;;;;5039034;28;20009;-88
2022/11/08 01:19:12;;;;;;;7.40;3.20;;;;;;;;;;5060325;28;20020;-89
2022/11/08 01:21:38;;;;;;;9.70;3.63;;;;;;;;;;5028513;28;20017;-86
2022/11/08 01:24:04;;;;;;;18.90;4.25;;;;;;;;;;5041168;28;20020;-90
2022/11/08 01:26:30;;;;;;;9.52;3.50;;;;;;;;;;5055246;28;20018;-86
2022/11/08 01:28:56;;;;;;;10.38;3.95;;;9.70;99.90;;;;;;5060148;28;20010;-89
2022/11/08 01:31:28;;;;;;;8.57;4.13;;;9.60;99.90;;;;;;5036023;28;20071;-87
2022/11/08 01:33:54;;;;;;;9.07;4.15;;;;;;;;;;5030940;28;20033;-88
2022/11/08 01:36:22;;;;;;;9.43;4.30;;;9.60;99.90;;;;;;5054582;28;20025;-88
2022/11/08 01:38:48;;;;;;;15.88;4.40;;;;;;;;;;5066342;28;20037;-87
2022/11/08 01:41:16;;;;;;;9.32;3.70;;;9.50;99.90;;;;;;5043251;28;20024;-89
2022/11/08 01:43:50;;;;;;;7.55;3.90;;;9.50;99.90;;;;;;5046593;28;20018;-86
2022/11/08 01:46:19;;;;;;;9.15;3.47;;;;;;;;;;5045081;28;20006;-88
2022/11/08 01:48:45;;;;;;;7.93;3.60;;;;;;;;;;5055412;28;20014;-87
2022/11/08 01:51:13;;;;;;;9.88;3.88;;;9.40;99.90;;;;;;5049106;28;20038;-89
2022/11/08 01:53:39;;;;;;;8.50;3.85;;;;;;;;;;5056229;28;20010;-87
2022/11/08 01:56:07;;;;;;;10.68;3.55;;;9.30;99.90;;;;;;5050545;28;20014;-89
2022/11/08 01:58:36;;;;;;;8.15;4.15;;;;;;;;;;5034804;28;20074;-86
2022/11/08 02:01:02;;;;;;;9.40;4.53;;;;;;;;;;5044271;28;20113;-86
2022/11/08 02:03:29;;;;;;;7.82;3.55;;;;;;;;;;5054795;28;20017;-88
2022/11/08 02:05:56;;;;;;;10.68;3.80;;;;;;;;;;5059285;28;20025;-88
2022/11/08 02:08:30;;;;;;;10.95;3.95;;;9.20;99.90;;;;;;5063235;28;20071;-91
2022/11/08 02:10:57;;;;;;;6.80;3.40;;;9.10;99.90;;;;;;5052987;28;20040;-89
2022/11/08 02:13:24;;;;;;;8.15;3.17;;;9.20;99.90;;;;;;5030212;28;20017;-90
2022/11/08 02:15:51;;;;;;;8.75;3.35;;;;;;;;;;5032444;28;20037;-88
2022/11/08 02:18:20;;;;;;;10.10;3.72;;;9.10;99.90;;;;;;5036903;28;20014;-87
2022/11/08 02:21:05;;;;;;;9.77;3.17;;;9.10;99.90;;;;;;5052763;28;20033;-87
2022/11/08 02:23:44;;;;;;;5.55;3.28;;;9.10;99.90;;;;;;5014692;28;20021;-87
2022/11/08 02:26:11;;;;;;;9.00;2.97;;;;;;;;;;5052642;28;20005;-88
2022/11/08 02:28:45;;;;;;;9.75;3.25;;;9.00;99.90;;;;;;5039479;28;20046;-88
2022/11/08 02:31:14;;;;;;;5.68;2.53;;;8.90;99.90;;;;;;5034914;28;20026;-88
2022/11/08 02:33:40;;;;;;;5.53;2.60;;;;;;;;;;5040374;28;20016;-87
2022/11/08 02:36:07;;;;;;;8.43;3.08;;;;;;;;;;5040501;28;20024;-87
2022/11/08 02:38:34;;;;;;;6.22;3.38;;;;;;;;;;5040505;28;20021;-88
2022/11/08 02:41:00;;;;;;;6.90;3.50;;;;;;;;;;5052413;28;20022;-89
2022/11/08 02:43:26;;;;;;;8.20;3.40;;;;;;;;;;5056343;28;20024;-89
2022/11/08 02:45:52;;;;;;;10.77;3.25;;;;;;;;;;5045425;28;20033;-88
2022/11/08 02:48:19;;;;;;;11.95;3.28;;;;;;;;;;5045338;28;20069;-89
2022/11/08 02:50:45;;;;;;;10.63;3.30;;;;;;;;;;5033187;28;20049;-88
2022/11/08 02:53:11;;;;;;;6.90;2.88;;;;;;;;;;5031056;28;20034;-87
2022/11/08 02:55:37;;;;;;;6.35;3.25;;;;;;;;;;5031955;28;20090;-86
2022/11/08 02:58:04;;;;;;;8.65;3.40;;;;;;;;;;5055549;28;20017;-88
2022/11/08 03:00:31;;;;;;;8.50;2.95;;;;;;;;;;5057274;28;20120;-88
2022/11/08 03:02:57;;;;;;;6.50;3.17;;;;;;;;;;5049002;28;20017;-88
2022/11/08 03:05:24;;;;;;;6.95;3.05;;;;;;;;;;5036919;28;20034;-87
2022/11/08 03:07:50;;;;;;;7.35;3.78;;;8.60;99.90;;;;;;5036675;28;20026;-88
2022/11/08 03:10:16;;;;;;;10.20;3.70;;;;;;;;;;5032192;28;20017;-86
2022/11/08 03:12:42;;;;;;;8.73;3.72;;;8.50;99.90;;;;;;5038593;28;20036;-86
2022/11/08 03:15:10;;;;;;;10.15;3.65;;;8.50;99.90;;;;;;5030844;28;20024;-89
2022/11/08 03:17:36;;;;;;;6.35;3.58;;;;;;;;;;5039544;28;20021;-88
2022/11/08 03:20:03;;;;;;;6.68;3.40;;;;;;;;;;5037245;28;20033;-88
2022/11/08 03:22:29;;;;;;;7.03;3.80;;;;;;;;;;5032536;28;20024;-88
2022/11/08 03:24:55;;;;;;;7.43;3.22;;;;;;;;;;5034796;28;20101;-89
2022/11/08 03:27:21;;;;;;;7.03;3.13;;;;;;;;;;5028677;28;20010;-87
2022/11/08 03:29:47;;;;;;;12.50;3.63;;;;;;;;;;5055730;28;20160;-90
2022/11/08 03:32:14;;;;;;;5.50;3.42;;;8.30;99.90;;;;;;5051979;28;20010;-88
2022/11/08 03:34:40;;;;;;;5.95;3.65;;;;;;;;;;5037222;28;20035;-90
2022/11/08 03:37:07;;;;;;;11.63;3.30;;;;;;;;;;5033360;28;20021;-88
2022/11/08 03:39:33;;;;;;;6.72;3.40;;;;;;;;;;5055379;28;20034;-88
2022/11/08 03:42:01;;;;;;;5.53;3.05;;;;;;;;;;5054484;28;20040;-88
2022/11/08 03:44:28;;;;;;;9.73;3.50;;;;;;;;;;5040417;28;20033;-89
2022/11/08 03:46:54;;;;;;;6.03;3.03;;;;;;;;;;5045179;28;20041;-88
2022/11/08 03:49:20;;;;;;;8.05;3.25;;;;;;;;;;5043379;28;20025;-87
2022/11/08 03:51:46;;;;;;;5.80;3.08;;;;;;;;;;5046417;28;20030;-90
2022/11/08 03:54:12;;;;;;;7.65;2.95;;;;;;;;;;5059448;28;20037;-89
2022/11/08 03:56:38;;;;;;;8.63;3.30;;;;;;;;;;5040288;28;20026;-87
2022/11/08 03:59:04;;;;;;;6.72;2.75;;;;;;;;;;5039111;28;20044;-86
2022/11/08 04:01:30;;;;;;;11.18;3.05;;;;;;;;;;5046837;28;20242;-88
2022/11/08 04:03:56;;;;;;;7.95;2.47;;;;;;;;;;5041351;28;20045;-86
2022/11/08 04:06:22;;;;;;;8.32;3.03;;;;;;;;;;5058197;28;20034;-86
2022/11/08 04:08:48;;;;;;;7.18;2.42;;;;;;;;;;5043592;28;20021;-87
2022/11/08 04:16:43;;;;;;;5.50;2.10;;;;;;;;;;5052395;28;20051;-89
2022/11/08 04:21:55;;;;;;;6.90;2.78;;;;;;;;;;5049161;28;20078;-86
2022/11/08 04:24:21;;;;;;;5.50;2.00;;;;;;;;;;5057456;28;20029;-89
2022/11/08 04:26:47;;;;;;;7.63;2.75;;;;;;;;;;5049052;28;20020;-88
2022/11/08 04:29:13;;;;;;;4.55;2.50;;;;;;;;;;5049334;28;20030;-88
2022/11/08 04:31:39;;;;;;;6.82;2.70;;;;;;;;;;5059267;28;20029;-89
2022/11/08 04:34:05;;;;;;;10.27;3.17;;;8.10;99.90;;;;;;5048572;28;20054;-88
2022/11/08 04:36:32;;;;;;;8.70;3.60;;;;;;;;;;5041072;28;20021;-87
2022/11/08 04:38:58;;;;;;;5.50;2.75;;;;;;;;;;5033653;28;20052;-88
2022/11/08 04:41:25;;;;;;;7.90;3.22;;;;;;;;;;5063300;28;20094;-87
2022/11/08 04:43:53;;;;;;;7.47;3.47;;;;;;;;;;5045796;28;20025;-89
2022/11/08 04:46:20;;;;;;;5.60;2.85;;;;;;;;;;5047353;28;20018;-90
2022/11/08 04:48:47;;;;;;;6.50;2.72;;;;;;;;;;5038193;28;20033;-90
2022/11/08 04:51:19;;;;;;;7.45;2.60;;;8.10;99.90;;;;;;5033133;28;20037;-89
2022/11/08 04:53:45;;;;;;;8.85;3.15;;;;;;;;;;5037088;28;20030;-90
2022/11/08 04:56:15;;;;;;;6.40;3.08;;;;;;;;;;5038414;28;20017;-90
2022/11/08 04:58:43;;;;;;;6.32;2.70;;;8.20;99.90;;;;;;5054311;28;20029;-88
2022/11/08 05:01:11;;;;;;;5.90;3.15;;;;;;;;;;5042430;28;20021;-89
2022/11/08 05:03:37;;;;;;;5.43;3.03;;;;;;;;;;5039648;28;20037;-89
2022/11/08 05:06:05;;;;;;;6.50;2.80;;;;;;;;;;5041027;28;20053;-88
2022/11/08 05:08:31;;;;;;;5.97;2.80;;;;;;;;;;5044749;28;20025;-90
2022/11/08 05:11:08;;;;;;;7.93;2.83;;;8.10;99.90;;;;;;5044896;28;20626;-87
2022/11/08 05:13:34;;;;;;;6.47;3.03;;;;;;;;;;5048893;28;20039;-89
2022/11/08 05:16:04;;;;;;;7.00;2.97;;;8.10;99.90;;;;;;5034668;28;21851;-88
2022/11/08 05:18:33;;;;;;;7.78;3.00;;;;;;;;;;5028637;28;20097;-87
2022/11/08 05:23:45;;;;;;;5.20;3.13;;;;;;;;;;5056406;28;20020;-89
2022/11/08 05:26:12;;;;;;;6.85;3.00;;;;;;;;;;5041116;28;20033;-89
2022/11/08 05:28:39;;;;;;;8.55;3.38;;;;;;;;;;5057499;28;20026;-89
2022/11/08 05:31:05;;;;;;;4.75;2.63;;;;;;;;;;5045719;28;20036;-88
2022/11/08 05:33:32;;;;;;;6.88;2.65;;;;;;;;;;5035569;28;20020;-91
2022/11/08 05:36:02;;;;;;;7.80;3.42;;;;;;;;;;5062953;28;20047;-87
2022/11/08 05:38:29;;;;;;;6.00;3.20;;;8.30;99.90;;;;;;5050271;28;20033;-90
2022/11/08 05:40:55;;;;;;;5.13;3.58;;;;;;;;;;5055884;28;20038;-88
2022/11/08 05:43:21;;;;;;;6.57;2.53;;;;;;;;;;5037539;28;20054;-88
2022/11/08 05:45:47;;;;;;;5.93;2.85;;;;;;;;;;5049584;28;20210;-90
2022/11/08 05:48:13;;;;;;;6.15;2.10;;;;;;;;;;5031434;28;20026;-87
2022/11/08 05:50:39;;;;;;;6.25;2.47;;;;;;;;;;5026297;28;20060;-88
2022/11/08 05:53:05;;;;;;;4.07;1.83;;;;;;;;;;5020545;28;20034;-89
2022/11/08 05:55:31;;;;;;;3.72;1.70;;;;;;;;;;5031865;28;20026;-89
2022/11/08 05:57:57;;;;;;;3.75;1.80;;;;;;;;;;5028340;28;20026;-87
2022/11/08 06:00:23;;;;;;;7.05;2.10;;;;;;;;;;5028032;28;20056;-89
2022/11/08 06:02:49;;;;;;;4.13;1.40;;;;;;;;;;5027331;28;20040;-90
2022/11/08 06:05:15;;;;;;;3.95;1.65;;;;;;;;;;5039998;28;20025;-89
2022/11/08 06:07:41;;;;;;;4.15;1.80;;;;;;;;;;5035326;28;20036;-88
2022/11/08 06:10:07;;;;;;;3.80;1.80;;;;;;;;;;5020452;28;20030;-88
2022/11/08 06:12:33;;;;;;;6.07;1.83;;;;;;;;;;5041036;28;20017;-83
2022/11/08 06:14:59;;;;;;;4.88;1.80;;;;;;;;;;5029547;28;20022;-89
2022/11/08 06:17:25;;;;;;;5.13;1.80;;;;;;;;;;5027727;28;20032;-87
2022/11/08 06:19:51;;;;;;;3.50;1.48;;;;;;;;;;5041772;28;20043;-88
2022/11/08 06:22:17;;;;;;;3.03;1.63;;;;;;;;;;5027076;28;20040;-89
2022/11/08 06:24:43;;;;;;;4.18;1.80;;;;;;;;;;5024888;28;20025;-89
2022/11/08 06:27:09;;;;;;;3.15;1.70;;;;;;;;;;5046572;28;20025;-88
2022/11/08 06:29:35;;;;;;;5.07;1.58;;;;;;;;;;5028861;28;20253;-89
2022/11/08 06:32:01;;;;;;;3.05;1.42;;;;;;;;;;5033400;28;20032;-88
2022/11/08 06:34:27;;;;;;;4.07;1.50;;;;;;;;;;5040493;28;20041;-88
2022/11/08 06:36:55;;;;;;;4.28;1.60;;;;;;;;;;5050203;28;20049;-90
2022/11/08 06:39:21;;;;;;;4.00;1.70;;;10.00;99.90;;;;;;5023168;28;20032;-88
2022/11/08 06:41:47;;;;;;;3.33;1.70;;;;;;;;;;5020607;28;20026;-85
2022/11/08 06:44:13;;;;;;;2.95;1.70;;;;;;;;;;5026944;28;20090;-88
2022/11/08 06:46:39;;;;;;;3.42;1.55;;;;;;;;;;5040482;28;20048;-87
2022/11/08 06:49:05;;;;;;;3.58;1.85;;;;;;;;;;5031062;28;20032;-88
2022/11/08 06:51:31;;;;;;;5.63;1.80;;;;;;;;;;5046312;28;20049;-87
2022/11/08 06:53:57;;;;;;;3.58;1.50;;;;;;;;;;5042637;28;20040;-88
2022/11/08 06:56:23;;;;;;;4.70;1.67;;;;;;;;;;5025364;28;20132;-90
2022/11/08 06:58:51;;;;;;;3.65;1.98;;;;;;;;;;5025020;28;20060;-88
2022/11/08 07:01:17;;;;;;;5.15;2.42;;;;;;;;;;5045544;28;20025;-87
2022/11/08 07:03:43;;;;;;;4.35;1.42;;;;;;;;;;5049336;28;20090;-88
2022/11/08 07:06:09;;;;;;;3.28;1.65;;;;;;;;;;5030036;28;20044;-88
2022/11/08 07:08:35;;;;;;;3.35;1.50;;;;;;;;;;5036402;28;20057;-86
2022/11/08 07:11:02;;;;;;;3.92;1.58;;;10.10;99.90;;;;;;5037552;28;20033;-89
2022/11/08 07:13:28;;;;;;;5.15;1.80;;;;;;;;;;5033705;28;20033;-86
2022/11/08 07:15:57;;;;;;;5.13;1.70;;;10.10;99.90;;;;;;5024910;28;20092;-90
2022/11/08 07:18:23;;;;;;;4.43;1.77;;;;;;;;;;5022858;28;20029;-87
2022/11/08 07:20:51;;;;;;;4.07;1.80;;;;;;;;;;5024920;28;20726;-87
2022/11/08 07:23:17;;;;;;;3.00;1.70;;;;;;;;;;5048307;28;20021;-88
2022/11/08 07:25:45;;;;;;;3.70;1.50;;;;;;;;;;5033975;28;20089;-89
2022/11/08 07:28:18;;;;;;;3.90;1.65;;;;;;;;;;5032152;28;20017;-85
2022/11/08 07:30:45;;;;;;;4.85;2.20;;;10.30;99.90;;;;;;5054322;28;20383;-88
2022/11/08 07:33:11;;;;;;;8.43;1.60;;;;;;;;;;5034426;28;20026;-88
2022/11/08 07:35:37;;;;;;;4.40;1.42;;;;;;;;;;5027899;28;20048;-88
2022/11/08 07:38:03;;;;;;;2.45;1.30;;;;;;;;;;5043135;28;20528;-88
2022/11/08 07:40:29;;;;;;;7.07;1.83;;;;;;;;;;5035085;28;21217;-88
2022/11/08 07:42:59;;;;;;;4.65;1.80;;;;;;;;;;5032343;28;20018;-87
2022/11/08 07:45:25;;;;;;;4.40;1.73;;;;;;;;;;5031283;28;20043;-87
2022/11/08 07:48:01;;;;;;;5.18;1.85;;;10.50;99.90;;;;;;5037012;28;20018;-89
2022/11/08 07:50:28;;;;;;;5.72;1.92;;;;;;;;;;5036348;28;20089;-85
2022/11/08 07:52:54;;;;;;;6.65;1.83;;;;;;;;;;5034236;28;20040;-90
2022/11/08 07:55:20;;;;;;;4.05;1.40;;;;;;;;;;5030480;28;20033;-89
2022/11/08 07:57:46;;;;;;;4.60;1.52;;;;;;;;;;5030683;28;20037;-87
2022/11/08 08:00:13;;;;;;;5.72;2.00;;;;;;;;;;5036916;28;20029;-87
2022/11/08 08:02:38;;;;;;;4.00;1.92;;;10.70;99.90;;;;;;5054313;28;20021;-87
2022/11/08 08:05:04;;;;;;;4.85;1.75;;;10.80;99.90;;;;;;5033352;28;20022;-86
2022/11/08 08:07:30;;;;;;;9.55;1.88;;;10.80;99.90;;;;;;5033590;28;20037;-89
2022/11/08 08:09:56;;;;;;;3.88;1.63;;;;;;;;;;5052043;28;20029;-86
2022/11/08 08:12:22;;;;;;;5.00;1.60;;;;;;;;;;5035149;28;20195;-86
2022/11/08 08:14:48;;;;;;;3.13;1.65;;;;;;;;;;5039219;28;20020;-87
2022/11/08 08:17:14;;;;;;;3.72;1.65;;;;;;;;;;5036830;28;20018;-88
2022/11/08 08:19:40;;;;;;;5.15;2.15;;;;;;;;;;5057431;28;20045;-89
2022/11/08 08:22:06;;;;;;;6.10;1.88;;;;;;;;;;5038427;28;20021;-89
2022/11/08 08:24:32;;;;;;;2.72;1.40;;;;;;;;;;5039180;28;20016;-91
2022/11/08 08:26:57;;;;;;;4.72;1.73;;;11.20;99.90;;;;;;5064184;28;20025;-86
2022/11/08 08:29:24;;;;;;;4.63;2.05;;;;;;;;;;5057540;28;20056;-88
2022/11/08 08:31:49;;;;;;;2.47;1.33;;;;;;;;;;5037193;28;20108;-88
2022/11/08 08:34:16;;;;;;;2.78;1.42;;;;;;;;;;5034497;28;20038;-88
2022/11/08 08:36:42;;;;;;;4.30;1.40;;;;;;;;;;5037775;28;20030;-86
2022/11/08 08:39:08;;;;;;;4.93;1.40;;;;;;;;;;5054549;28;20032;-88
2022/11/08 08:41:34;;;;;;;4.57;1.48;;;;;;;;;;5036648;28;20033;-89
2022/11/08 08:44:00;;;;;;;6.32;1.75;;;;;;;;;;5038624;28;20029;-87
2022/11/08 08:46:26;;;;;;;4.47;1.60;;;;;;;;;;5031988;28;20045;-89
2022/11/08 08:48:52;;;;;;;3.00;1.17;;;;;;;;;;5033884;28;20041;-89
2022/11/08 08:51:19;;;;;;;2.75;1.48;;;;;;;;;;5023623;28;20029;-86
2022/11/08 08:53:45;;;;;;;3.17;1.48;;;;;;;;;;5024827;28;20033;-89
2022/11/08 08:56:11;;;;;;;5.65;1.58;;;;;;;;;;5042279;28;20033;-90
2022/11/08 08:58:36;;;;;;;4.72;1.30;;;12.50;99.90;;;;;;5035398;28;20037;-89
2022/11/08 09:01:04;;;;;;;2.83;1.42;;;12.60;99.90;;;;;;5038317;28;20033;-90
2022/11/08 09:03:30;;;;;;;5.35;1.83;;;;;;;;;;5033841;28;20091;-87
2022/11/08 09:05:57;;;;;;;2.75;1.38;;;12.80;99.90;;;;;;5046296;28;20017;-86
2022/11/08 09:08:23;;;;;;;3.42;1.50;;;;;;;;;;5045548;28;20100;-87
2022/11/08 09:11:00;;;;;;;4.68;1.40;;;;;;;;;;5041882;28;20105;-88
2022/11/08 09:13:27;;;;;;;2.40;1.23;;;13.00;99.90;;;;;;5026490;28;20049;-86
2022/11/08 09:15:53;;;;;;;3.70;1.85;;;;;;;;;;5033259;28;20029;-88
2022/11/08 09:18:19;;;;;;;4.40;1.40;;;;;;;;;;5042230;28;20632;-89
2022/11/08 09:20:46;;;;;;;3.63;1.42;;;;;;;;;;5040079;28;20057;-86
2022/11/08 09:23:13;;;;;;;5.13;1.40;;;13.20;99.90;;;;;;5043798;28;20137;-89
2022/11/08 09:25:39;;;;;;;2.33;1.40;;;;;;;;;;5021422;28;20025;-88
2022/11/08 09:28:05;;;;;;;3.75;1.50;;;;;;;;;;5024633;28;20029;-88
2022/11/08 09:30:31;;;;;;;3.30;1.48;;;;;;;;;;5022990;28;20474;-84
2022/11/08 09:32:57;;;;;;;3.60;1.55;;;;;;;;;;5023239;28;20028;-89
2022/11/08 09:35:24;;;;;;;2.75;1.30;;;;;;;;;;5021459;28;20033;-90
2022/11/08 09:37:52;;;;;;;5.05;1.70;;;;;;;;;;5025590;28;20056;-89
2022/11/08 09:40:22;;;;;;;3.28;1.38;;;13.70;99.90;;;;;;5036055;28;20021;-88
2022/11/08 09:43:03;;;;;;;2.13;1.10;;;13.70;99.90;;;;;;5037041;28;20044;-87
2022/11/08 09:45:36;;;;;;;3.67;1.50;;;13.90;99.90;;;;;;5029351;28;20036;-86
2022/11/08 09:48:05;;;;;;;6.38;1.38;;;14.10;99.90;;;;;;5047151;28;20036;-90
2022/11/08 09:50:53;;;;;;;3.00;1.52;;;14.20;99.90;;;;;;5033171;28;20113;-89
2022/11/08 09:53:34;;;;;;;5.75;1.70;;;14.30;99.90;;;;;;5053508;28;20108;-88
2022/11/08 09:56:14;;;;;;;2.70;1.20;;;14.30;99.90;;;;;;5026391;28;20022;-87
2022/11/08 09:58:40;;;;;;;4.40;1.73;;;;;;;;;;5042212;28;20039;-90
2022/11/08 10:01:13;;;;;;;4.05;1.70;;;;;;;;;;5046576;28;20021;-92
2022/11/08 10:03:42;;;;;;;3.00;1.27;;;14.40;99.90;;;;;;5039091;28;20029;-87
2022/11/08 10:06:20;;;;;;;6.78;1.48;;;;;;;;;;5049971;28;20009;-86
2022/11/08 10:09:27;;;;;;;2.75;1.40;;;14.40;99.90;;;;;;5053321;28;20062;-90
2022/11/08 10:11:59;;;;;;;3.53;1.17;;;;;;;;;;5025660;28;20030;-87
2022/11/08 10:14:54;;;;;;;2.90;1.40;;;14.30;99.90;;;;;;5049433;28;20021;-90
2022/11/08 10:17:50;;;;;;;2.92;1.50;;;14.30;99.90;;;;;;5028434;28;20021;-90
2022/11/08 10:20:19;;;;;;;2.08;1.35;;;;;;;;;;5005185;28;20036;-90
2022/11/08 10:23:17;;;;;;;3.85;1.30;;;14.50;99.90;;;;;;5037352;28;20038;-87
2022/11/08 10:25:59;;;;;;;4.03;1.40;;;14.80;99.90;;;;;;5018641;28;20014;-86
2022/11/08 10:28:37;;;;;;;2.75;1.42;;;15.10;99.90;;;;;;5045680;28;20026;-90
2022/11/08 10:31:03;;;;;;;4.80;1.52;;;;;;;;;;5027249;28;20025;-88
2022/11/08 10:33:41;;;;;;;5.50;1.45;;;15.20;99.90;;;;;;5034432;28;20071;-89
2022/11/08 10:36:13;;;;;;;4.88;1.85;;;15.10;99.90;;;;;;5045836;28;20108;-88
2022/11/08 10:38:45;;;;;;;3.80;1.60;;;15.00;99.90;;;;;;5034360;28;20081;-89
2022/11/08 10:41:29;;;;;;;2.58;1.38;;;14.80;99.90;;;;;;5032230;28;20030;-88
2022/11/08 10:44:06;;;;;;;3.17;1.50;;;;;;;;;;5050107;28;20084;-89
2022/11/08 10:46:46;;;;;;;4.30;1.55;;;14.70;99.90;;;;;;5033124;28;20018;-89
2022/11/08 10:49:12;;;;;;;3.97;1.30;;;;;;;;;;5047259;28;20025;-89
2022/11/08 10:51:38;;;;;;;5.18;1.33;;;;;;;;;;5035627;28;20029;-88
2022/11/08 10:54:04;;;;;;;4.18;1.58;;;;;;;;;;5051322;28;20074;-92
2022/11/08 10:56:30;;;;;;;3.03;1.30;;;;;;;;;;5036084;28;20010;-88
2022/11/08 10:58:56;;;;;;;4.18;1.42;;;;;;;;;;5040414;28;20032;-90
2022/11/08 11:01:26;;;;;;;5.38;1.40;;;15.00;99.90;;;;;;5034455;28;20255;-87
2022/11/08 11:03:52;;;;;;;3.15;1.35;;;;;;;;;;5048122;28;20063;-86
2022/11/08 11:06:26;;;;;;;7.07;1.25;;;;;;;;;;5065017;22;20140;-89
2022/11/08 11:08:58;;;;;;;2.78;1.30;;;;;;;;;;5051215;28;20093;-91
2022/11/08 11:11:26;;;;;;;2.33;1.33;;;;;;;;;;5046385;28;20047;-88
2022/11/08 11:14:12;;;;;;;3.60;1.25;;;15.30;99.90;;;;;;5049406;28;20037;-89
2022/11/08 11:16:38;;;;;;;3.47;1.20;;;;;;;;;;5036041;28;20040;-88
2022/11/08 11:19:12;;;;;;;3.72;1.40;;;15.30;99.90;;;;;;5026106;28;20025;-90
2022/11/08 11:21:39;;;;;;;3.05;1.50;;;;;;;;;;5039674;28;20025;-88
2022/11/08 11:24:07;;;;;;;2.67;1.40;;;;;;;;;;5030886;28;20032;-90
2022/11/08 11:26:34;;;;;;;3.30;1.40;;;;;;;;;;5026830;28;20035;-89
2022/11/08 11:29:03;;;;;;;3.28;1.50;;;;;;;;;;5027381;28;20021;-88
2022/11/08 11:31:30;;;;;;;3.30;1.63;;;;;;;;;;5025115;28;20032;-88
2022/11/08 11:33:56;;;;;;;4.90;1.20;;;;;;;;;;5024463;28;20128;-87
2022/11/08 11:36:24;;;;;;;2.47;1.50;;;;;;;;;;5041629;28;20033;-88
2022/11/08 11:38:58;;;;;;;2.92;1.30;;;;;;;;;;5040977;28;20025;-85
2022/11/08 11:41:29;;;;;;;4.38;1.70;;;16.00;99.90;;;;;;5040561;28;20029;-86
2022/11/08 11:44:12;;;;;;;4.45;1.98;;;16.10;99.90;;;;;;5040662;28;20111;-86
2022/11/08 11:46:44;;;;;;;3.70;1.60;;;16.10;99.90;;;;;;5023598;28;20030;-88
2022/11/08 11:49:18;;;;;;;3.63;1.80;;;16.10;99.90;;;;;;5016178;28;20062;-86
2022/11/08 11:51:44;;;;;;;3.20;1.50;;;;;;;;;;5011226;28;20048;-86
2022/11/08 11:54:14;;;;;;;2.97;1.45;;;16.10;99.90;;;;;;5019859;28;20017;-87
2022/11/08 11:56:54;;;;;;;4.97;1.70;;;16.20;99.90;;;;;;5038020;28;20025;-85
2022/11/08 11:59:54;;;;;;;4.07;1.50;;;16.20;99.90;;;;;;5018490;28;20120;-88
2022/11/08 12:02:53;;;;;;;3.38;1.50;;;16.30;99.90;;;;;;5019008;28;20018;-84
2022/11/08 12:05:34;;;;;;;3.03;1.25;;;16.30;99.90;;;;;;5039995;28;20084;-86
2022/11/08 12:08:22;;;;;;;4.22;1.65;;;16.40;99.90;;;;;;5003621;28;20033;-86
2022/11/08 12:11:13;;;;;;;3.38;1.27;;;16.50;99.90;;;;;;5024327;28;20022;-87
2022/11/08 12:14:03;;;;;;;6.20;1.70;;;16.50;99.90;;;;;;5039780;28;20032;-85
2022/11/08 12:16:42;;;;;;;2.55;1.30;;;16.50;99.90;;;;;;5031800;28;20072;-87
2022/11/08 12:19:35;;;;;;;2.22;1.15;;;16.60;99.90;;;;;;5043478;28;20029;-84
2022/11/08 12:22:01;;;;;;;2.55;1.30;;;;;;;;;;5028198;28;20485;-82
2022/11/08 12:24:32;;;;;;;3.10;1.30;;;16.50;99.90;;;;;;5043333;28;20029;-86
2022/11/08 12:27:13;;;;;;;2.90;1.20;;;16.50;99.90;;;;;;5044362;28;20033;-84
2022/11/08 12:30:02;;;;;;;6.97;1.77;;;16.50;99.90;;;;;;5036495;28;20039;-86
2022/11/08 12:32:42;;;;;;;2.40;1.30;;;16.50;99.90;;;;;;5023930;28;20083;-83
2022/11/08 12:35:22;;;;;;;2.88;1.25;;;16.50;99.90;;;;;;5021559;28;20052;-85
2022/11/08 12:38:03;;;;;;;2.67;1.33;;;16.50;99.90;;;;;;5042560;28;20068;-82
2022/11/08 12:40:53;;;;;;;3.88;1.35;;;16.40;99.90;;;;;;5018293;28;20022;-85
2022/11/08 12:43:20;;;;;;;2.70;1.35;;;;;;;;;;5017637;28;20040;-84
2022/11/08 12:46:15;;;;;;;3.53;1.40;;;16.30;99.90;;;;;;5038948;28;20483;-83
2022/11/08 12:48:58;;;;;;;5.63;1.52;;;16.30;99.90;;;;;;5028862;28;20041;-85
2022/11/08 12:51:33;;;;;;;3.08;1.58;;;16.40;99.90;;;;;;5019001;28;20017;-84
2022/11/08 12:54:13;;;;;;;4.70;1.50;;;16.50;99.90;;;;;;5018346;28;20028;-85
2022/11/08 12:56:43;;;;;;;4.82;1.50;;;16.60;99.90;;;;;;5020192;28;20021;-83
2022/11/08 12:59:30;;;;;;;2.47;1.30;;;16.70;99.90;;;;;;5020592;28;20030;-84
2022/11/08 13:02:00;;;;;;;3.40;1.40;;;16.60;99.90;;;;;;5033507;28;20047;-86
2022/11/08 13:04:29;;;;;;;9.37;3.10;;;;;;;;;;5027172;28;20060;-85
2022/11/08 13:07:09;;;;;;;4.43;1.65;;;16.60;99.90;;;;;;5053425;28;20032;-86
2022/11/08 13:09:52;;;;;;;3.15;1.30;;;16.60;99.90;;;;;;5044117;28;20534;-85
2022/11/08 13:12:39;;;;;;;2.00;1.20;;;16.60;99.90;;;;;;5042254;28;20022;-86
2022/11/08 13:15:15;;;;;;;3.00;1.13;;;16.60;99.90;;;;;;5017723;28;20024;-87
2022/11/08 13:18:16;;;;;;;4.20;1.30;;;16.60;99.90;;;;;;5030062;28;20025;-86
2022/11/08 13:20:47;;;;;;;4.53;1.48;;;16.60;99.90;;;;;;5010377;28;20041;-82
2022/11/08 13:23:19;;;;;;;3.10;1.65;;;16.70;99.90;;;;;;5021085;28;20079;-82
2022/11/08 13:25:45;;;;;;;3.90;1.40;;;16.80;99.90;;;;;;5021540;28;20029;-83
2022/11/08 13:28:34;;;;;;;6.38;1.50;;;16.80;99.90;;;;;;5020372;28;20040;-84
2022/11/08 13:31:16;;;;;;;3.17;1.15;;;16.80;99.90;;;;;;5012523;28;20022;-84
2022/11/08 13:34:01;;;;;;;2.90;1.40;;;16.90;99.90;;;;;;5025756;28;20029;-83
2022/11/08 13:36:34;;;;;;;2.13;1.10;;;16.90;99.90;;;;;;5036283;28;20091;-82
2022/11/08 13:39:26;;;;;;;3.80;1.30;;;16.90;99.90;;;;;;5041906;28;20034;-85
2022/11/08 13:42:24;;;;;;;3.85;1.55;;;16.90;99.90;;;;;;5046248;28;20022;-83
2022/11/08 13:44:58;;;;;;;4.30;1.60;;;16.90;99.90;;;;;;5021781;28;20033;-83
2022/11/08 13:47:32;;;;;;;4.00;1.30;;;16.80;99.90;;;;;;5019940;28;20029;-80
2022/11/08 13:50:26;;;;;;;3.70;1.80;;;16.80;99.90;;;;;;5003316;28;20030;-85
2022/11/08 13:53:19;;;;;;;3.53;1.25;;;16.80;99.90;;;;;;5023162;28;20026;-82
2022/11/08 13:56:16;;;;;;;2.90;1.50;;;16.80;99.90;;;;;;5033138;28;20043;-81
2022/11/08 13:58:45;;;;;;;2.22;1.40;;;16.70;99.90;;;;;;5039933;28;20039;-84
2022/11/08 14:01:46;;;;;;;4.43;1.50;;;16.60;99.90;;;;;;5030680;28;20052;-88
2022/11/08 14:04:28;;;;;;;3.55;1.50;;;16.60;99.90;;;;;;4995359;28;20036;-84
2022/11/08 14:07:02;;;;;;;4.35;1.50;;;16.60;99.90;;;;;;5041259;28;20053;-85
2022/11/08 14:09:28;;;;;;;3.03;1.30;;;;;;;;;;5028568;28;20294;-86
2022/11/08 14:12:07;;;;;;;5.82;1.45;;;16.50;99.90;;;;;;5044519;28;20029;-84
2022/11/08 14:15:25;;;;;;;2.20;1.10;;;16.60;99.90;;;;;;5030150;28;20021;-83
2022/11/08 14:17:57;;;;;;;4.20;1.58;;;16.60;99.90;;;;;;5017596;28;20037;-83
2022/11/08 14:20:28;;;;;;;5.03;1.90;;;16.60;99.90;;;;;;5012534;28;20407;-82
2022/11/08 14:22:55;;;;;;;4.05;1.65;;;;;;;;;;5020049;28;20055;-86
2022/11/08 14:25:34;;;;;;;4.07;1.70;;;16.60;99.90;;;;;;5026932;28;20024;-85
2022/11/08 14:28:00;;;;;;;2.17;1.30;;;16.70;99.90;;;;;;5038906;28;20036;-85
2022/11/08 14:30:26;;;;;;;2.03;1.20;;;;;;;;;;5028663;28;20053;-87
2022/11/08 14:33:25;;;;;;;3.88;1.30;;;16.70;99.90;;;;;;5022733;28;20517;-85
2022/11/08 14:35:52;;;;;;;3.83;1.35;;;16.80;99.90;;;;;;4991516;28;20034;-86
2022/11/08 14:38:18;;;;;;;2.22;1.30;;;;;;;;;;5033353;28;20403;-85
2022/11/08 14:40:49;;;;;;;3.20;1.38;;;;;;;;;;5023842;28;20060;-90
2022/11/08 14:43:15;;;;;;;4.38;1.33;;;;;;;;;;5032220;28;20079;-87